createdAt,value
2022-11-01T00:02:10.528Z,33.15
2022-11-01T00:04:38.364Z,28.73
2022-11-01T00:07:06.352Z,27.65
2022-11-01T00:09:34.221Z,31.38
2022-11-01T00:12:01.528Z,28.60
2022-11-01T00:14:28.928Z,29.95
2022-11-01T00:16:56.213Z,29.17
2022-11-01T00:19:23.519Z,22.73
2022-11-01T00:21:50.875Z,31.20
2022-11-01T00:24:20.657Z,29.38
2022-11-01T00:29:16.781Z,29.33
2022-11-01T00:31:44.107Z,27.60
2022-11-01T00:34:11.608Z,28.90
2022-11-01T00:36:38.900Z,27.52
2022-11-01T00:39:07.652Z,25.40
2022-11-01T00:41:35.252Z,24.42
2022-11-01T00:44:03.640Z,29.95
2022-11-01T00:46:32.005Z,24.00
2022-11-01T00:48:59.714Z,28.20
2022-11-01T00:51:27.501Z,27.90
2022-11-01T00:53:54.844Z,29.35
2022-11-01T00:56:22.192Z,26.48
2022-11-01T00:58:49.538Z,27.35
2022-11-01T01:01:16.952Z,26.80
2022-11-01T01:03:44.354Z,28.85
2022-11-01T01:06:11.599Z,30.35
2022-11-01T01:08:38.984Z,24.58
2022-11-01T01:11:07.998Z,23.80
2022-11-01T01:13:35.306Z,24.90
2022-11-01T01:16:08.320Z,27.13
2022-11-01T01:18:35.785Z,21.90
2022-11-01T01:21:04.422Z,26.73
2022-11-01T01:23:33.161Z,24.83
2022-11-01T01:26:08.490Z,22.90
2022-11-01T01:28:43.525Z,22.92
2022-11-01T01:31:13.979Z,21.35
2022-11-01T01:33:41.653Z,20.52
2022-11-01T01:36:11.180Z,18.35
2022-11-01T01:38:38.679Z,21.90
2022-11-01T01:41:42.177Z,19.35
2022-11-01T01:44:46.940Z,17.27
2022-11-01T01:47:24.297Z,18.45
2022-11-01T01:49:56.557Z,16.90
2022-11-01T01:52:24.412Z,18.67
2022-11-01T01:54:52.205Z,21.17
2022-11-01T01:57:20.239Z,20.13
2022-11-01T01:59:48.139Z,18.75
2022-11-01T02:02:17.584Z,21.70
2022-11-01T02:04:50.123Z,22.23
2022-11-01T02:07:17.496Z,25.85
2022-11-01T02:09:45.859Z,23.80
2022-11-01T02:12:14.430Z,21.17
2022-11-01T02:14:43.479Z,22.00
2022-11-01T02:17:32.150Z,23.50
2022-11-01T02:20:36.381Z,26.30
2022-11-01T02:23:22.330Z,24.02
2022-11-01T02:26:25.936Z,25.45
2022-11-01T02:29:34.623Z,25.10
2022-11-01T02:32:31.038Z,22.50
2022-11-01T02:35:05.899Z,26.35
2022-11-01T02:37:40.138Z,28.35
2022-11-01T02:40:14.051Z,26.15
2022-11-01T02:42:54.591Z,24.75
2022-11-01T02:45:29.291Z,25.35
2022-11-01T02:48:01.402Z,24.60
2022-11-01T02:50:40.853Z,26.60
2022-11-01T02:57:41.849Z,26.42
2022-11-01T03:00:28.401Z,26.58
2022-11-01T03:03:07.850Z,24.50
2022-11-01T03:06:18.750Z,25.83
2022-11-01T03:08:57.698Z,24.52
2022-11-01T03:11:33.521Z,25.02
2022-11-01T03:14:25.346Z,26.15
2022-11-01T03:17:05.985Z,26.63
2022-11-01T03:20:06.514Z,26.55
2022-11-01T03:23:06.510Z,25.30
2022-11-01T03:25:40.879Z,25.98
2022-11-01T03:28:19.282Z,30.20
2022-11-01T03:30:58.906Z,32.15
2022-11-01T03:33:27.403Z,26.70
2022-11-01T03:36:01.658Z,25.33
2022-11-01T03:38:36.448Z,29.60
2022-11-01T03:41:08.908Z,28.02
2022-11-01T03:43:36.984Z,34.75
2022-11-01T03:46:04.699Z,29.15
2022-11-01T03:48:32.307Z,29.92
2022-11-01T03:50:59.740Z,29.85
2022-11-01T03:53:27.055Z,27.02
2022-11-01T03:55:54.385Z,27.85
2022-11-01T03:58:21.647Z,28.23
2022-11-01T04:00:50.792Z,30.10
2022-11-01T04:03:18.087Z,29.73
2022-11-01T04:05:45.334Z,30.58
2022-11-01T04:08:12.841Z,28.80
2022-11-01T04:10:40.135Z,24.42
2022-11-01T04:13:07.394Z,30.80
2022-11-01T04:15:53.635Z,30.13
2022-11-01T04:18:43.738Z,32.13
2022-11-01T04:21:16.832Z,31.65
2022-11-01T04:23:44.970Z,31.83
2022-11-01T04:26:18.069Z,27.55
2022-11-01T04:28:57.397Z,30.05
2022-11-01T04:31:31.079Z,30.13
2022-11-01T04:33:59.665Z,33.50
2022-11-01T04:36:27.587Z,27.20
2022-11-01T04:38:56.386Z,30.17
2022-11-01T04:41:25.634Z,27.45
2022-11-01T04:43:54.815Z,28.10
2022-11-01T04:46:22.672Z,27.98
2022-11-01T04:48:50.183Z,27.77
2022-11-01T04:51:17.462Z,35.28
2022-11-01T04:53:44.683Z,29.73
2022-11-01T04:56:13.739Z,43.83
2022-11-01T04:58:44.971Z,41.30
2022-11-01T05:01:15.078Z,40.67
2022-11-01T05:03:43.448Z,36.70
2022-11-01T05:06:10.946Z,41.17
2022-11-01T05:08:38.323Z,41.90
2022-11-01T05:11:05.868Z,39.22
2022-11-01T05:13:33.691Z,39.25
2022-11-01T05:16:21.175Z,47.45
2022-11-01T05:18:49.504Z,37.95
2022-11-01T05:21:16.980Z,34.80
2022-11-01T05:23:44.262Z,41.05
2022-11-01T05:26:11.596Z,37.30
2022-11-01T05:28:38.898Z,43.50
2022-11-01T05:31:06.373Z,37.38
2022-11-01T05:33:33.630Z,38.85
2022-11-01T05:36:01.829Z,37.28
2022-11-01T05:38:29.328Z,37.95
2022-11-01T05:40:56.605Z,41.50
2022-11-01T05:43:23.986Z,38.10
2022-11-01T05:45:51.315Z,39.65
2022-11-01T05:48:18.600Z,37.88
2022-11-01T05:50:46.969Z,37.35
2022-11-01T05:53:14.373Z,40.78
2022-11-01T05:55:57.728Z,41.55
2022-11-01T05:58:36.307Z,41.55
2022-11-01T06:01:06.242Z,42.33
2022-11-01T06:03:34.205Z,48.13
2022-11-01T06:06:01.460Z,43.17
2022-11-01T06:08:29.917Z,44.53
2022-11-01T06:11:05.585Z,45.70
2022-11-01T06:13:33.654Z,47.75
2022-11-01T06:16:03.035Z,42.42
2022-11-01T06:18:30.678Z,43.47
2022-11-01T06:20:59.266Z,44.72
2022-11-01T06:23:26.537Z,49.78
2022-11-01T06:26:04.263Z,41.10
2022-11-01T06:28:32.655Z,42.95
2022-11-01T06:31:02.364Z,48.00
2022-11-01T06:33:30.742Z,45.72
2022-11-01T06:35:58.335Z,42.75
2022-11-01T06:38:25.612Z,43.03
2022-11-01T06:40:52.953Z,45.75
2022-11-01T06:43:20.237Z,43.42
2022-11-01T06:45:47.889Z,43.40
2022-11-01T06:48:15.108Z,45.33
2022-11-01T06:50:42.400Z,45.08
2022-11-01T06:53:09.924Z,40.50
2022-11-01T06:55:37.513Z,40.33
2022-11-01T06:58:05.185Z,39.63
2022-11-01T07:00:32.666Z,41.58
2022-11-01T07:03:02.276Z,41.90
2022-11-01T07:05:34.345Z,41.20
2022-11-01T07:08:06.591Z,37.70
2022-11-01T07:10:35.285Z,37.30
2022-11-01T07:13:07.509Z,39.58
2022-11-01T07:15:35.303Z,37.90
2022-11-01T07:18:05.332Z,43.63
2022-11-01T07:20:41.501Z,37.20
2022-11-01T07:23:15.671Z,43.35
2022-11-01T07:25:44.127Z,38.90
2022-11-01T07:28:11.674Z,42.95
2022-11-01T07:30:39.474Z,41.28
2022-11-01T07:33:07.363Z,39.85
2022-11-01T07:35:35.758Z,41.53
2022-11-01T07:38:08.003Z,39.58
2022-11-01T07:40:39.304Z,38.60
2022-11-01T07:43:06.910Z,39.22
2022-11-01T07:45:36.577Z,38.45
2022-11-01T07:48:06.563Z,36.75
2022-11-01T07:50:34.555Z,34.30
2022-11-01T07:53:07.389Z,37.78
2022-11-01T07:55:36.062Z,36.03
2022-11-01T07:58:04.293Z,36.13
2022-11-01T08:00:32.208Z,32.55
2022-11-01T08:03:22.296Z,35.55
2022-11-01T08:05:49.699Z,36.78
2022-11-01T08:08:17.345Z,36.88
2022-11-01T08:10:45.094Z,34.30
2022-11-01T08:13:25.724Z,32.70
2022-11-01T08:15:53.679Z,32.47
2022-11-01T08:18:23.602Z,37.53
2022-11-01T08:20:51.896Z,33.85
2022-11-01T08:23:19.776Z,29.77
2022-11-01T08:25:47.103Z,28.20
2022-11-01T08:28:20.225Z,33.58
2022-11-01T08:30:49.300Z,20.40
2022-11-01T08:33:16.577Z,23.35
2022-11-01T08:35:49.786Z,24.52
2022-11-01T08:38:20.923Z,24.17
2022-11-01T08:40:48.700Z,22.05
2022-11-01T08:43:15.983Z,22.77
2022-11-01T08:45:43.377Z,22.95
2022-11-01T08:48:10.985Z,23.20
2022-11-01T08:50:38.716Z,25.27
2022-11-01T08:53:12.336Z,24.30
2022-11-01T08:55:40.403Z,25.15
2022-11-01T08:58:08.340Z,24.50
2022-11-01T09:00:36.391Z,25.02
2022-11-01T09:03:04.099Z,22.98
2022-11-01T09:05:31.512Z,29.52
2022-11-01T09:08:00.730Z,26.90
2022-11-01T09:10:30.805Z,27.60
2022-11-01T09:12:59.599Z,27.00
2022-11-01T09:15:27.611Z,31.88
2022-11-01T09:17:54.944Z,28.77
2022-11-01T09:20:22.295Z,29.63
2022-11-01T09:22:52.804Z,28.23
2022-11-01T09:25:20.315Z,27.67
2022-11-01T09:27:47.550Z,30.38
2022-11-01T09:30:15.564Z,28.10
2022-11-01T09:32:43.003Z,30.30
2022-11-01T09:35:10.301Z,31.73
2022-11-01T09:37:37.597Z,29.75
2022-11-01T09:40:05.585Z,26.55
2022-11-01T09:42:40.160Z,33.85
2022-11-01T09:45:16.426Z,34.08
2022-11-01T09:47:48.721Z,29.13
2022-11-01T09:50:22.486Z,27.83
2022-11-01T09:52:51.111Z,32.85
2022-11-01T09:55:34.093Z,32.53
2022-11-01T09:58:13.329Z,33.42
2022-11-01T10:00:49.950Z,29.75
2022-11-01T10:03:33.720Z,25.55
2022-11-01T10:06:12.864Z,34.25
2022-11-01T10:09:12.449Z,26.63
2022-11-01T10:12:06.017Z,31.92
2022-11-01T10:14:42.470Z,25.27
2022-11-01T10:17:23.319Z,27.88
2022-11-01T10:19:51.014Z,26.83
2022-11-01T10:22:24.996Z,24.27
2022-11-01T10:24:58.934Z,26.75
2022-11-01T10:27:58.338Z,27.40
2022-11-01T10:30:27.090Z,22.90
2022-11-01T10:33:29.437Z,28.42
2022-11-01T10:36:02.404Z,24.92
2022-11-01T10:41:42.698Z,28.45
2022-11-01T10:44:23.426Z,28.48
2022-11-01T10:46:52.199Z,28.45
2022-11-01T10:49:40.451Z,28.63
2022-11-01T10:52:26.184Z,29.90
2022-11-01T10:54:56.343Z,28.95
2022-11-01T10:57:43.792Z,30.30
2022-11-01T11:00:20.048Z,25.23
2022-11-01T11:03:31.115Z,31.15
2022-11-01T11:06:11.486Z,28.67
2022-11-01T11:08:41.852Z,29.95
2022-11-01T11:11:13.994Z,31.58
2022-11-01T11:13:45.356Z,25.90
2022-11-01T11:16:25.892Z,31.45
2022-11-01T11:19:16.158Z,34.85
2022-11-01T11:21:45.278Z,32.00
2022-11-01T11:24:35.745Z,33.50
2022-11-01T11:27:11.385Z,28.50
2022-11-01T11:29:48.934Z,30.23
2022-11-01T11:32:19.929Z,26.45
2022-11-01T11:34:53.020Z,26.35
2022-11-01T11:37:23.421Z,26.25
2022-11-01T11:40:12.492Z,32.00
2022-11-01T11:42:39.897Z,31.05
2022-11-01T11:45:24.276Z,37.70
2022-11-01T11:47:51.926Z,34.63
2022-11-01T11:50:26.451Z,33.25
2022-11-01T11:53:08.664Z,37.58
2022-11-01T11:55:49.120Z,38.60
2022-11-01T11:58:44.284Z,42.88
2022-11-01T12:01:15.508Z,34.60
2022-11-01T12:04:19.107Z,36.97
2022-11-01T12:06:46.908Z,37.65
2022-11-01T12:09:42.070Z,43.67
2022-11-01T12:12:29.851Z,40.75
2022-11-01T12:14:58.289Z,50.53
2022-11-01T12:17:31.561Z,43.53
2022-11-01T12:20:20.120Z,40.10
2022-11-01T12:23:09.272Z,44.97
2022-11-01T12:25:38.099Z,46.15
2022-11-01T12:28:24.969Z,44.40
2022-11-01T12:30:56.759Z,37.90
2022-11-01T12:33:41.042Z,38.05
2022-11-01T12:36:09.951Z,25.05
2022-11-01T12:38:43.257Z,29.65
2022-11-01T12:41:18.086Z,22.48
2022-11-01T12:44:04.025Z,25.77
2022-11-01T12:46:49.210Z,19.83
2022-11-01T12:49:49.093Z,23.65
2022-11-01T12:52:31.304Z,17.17
2022-11-01T12:55:26.767Z,16.25
2022-11-01T12:57:54.995Z,15.35
2022-11-01T13:00:23.521Z,14.55
2022-11-01T13:03:17.357Z,14.20
2022-11-01T13:05:56.097Z,22.50
2022-11-01T13:08:41.713Z,21.70
2022-11-01T13:11:46.812Z,21.40
2022-11-01T13:14:31.649Z,16.92
2022-11-01T13:17:22.098Z,17.23
2022-11-01T13:20:08.157Z,19.40
2022-11-01T13:22:45.533Z,22.75
2022-11-01T13:25:40.920Z,17.70
2022-11-01T13:28:34.490Z,17.63
2022-11-01T13:31:23.796Z,17.60
2022-11-01T13:34:18.868Z,13.07
2022-11-01T13:36:51.972Z,15.25
2022-11-01T13:39:23.192Z,16.02
2022-11-01T13:42:04.270Z,19.02
2022-11-01T13:44:38.450Z,15.52
2022-11-01T13:47:08.127Z,14.35
2022-11-01T13:49:57.026Z,18.88
2022-11-01T13:52:29.785Z,24.98
2022-11-01T13:55:26.117Z,15.95
2022-11-01T13:57:54.837Z,19.90
2022-11-01T14:00:46.537Z,12.23
2022-11-01T14:03:18.372Z,18.70
2022-11-01T14:05:46.425Z,18.38
2022-11-01T14:08:28.352Z,20.92
2022-11-01T14:10:56.308Z,18.95
2022-11-01T14:13:39.147Z,15.20
2022-11-01T14:16:15.537Z,14.15
2022-11-01T14:19:21.462Z,16.90
2022-11-01T14:21:51.649Z,18.85
2022-11-01T14:24:33.527Z,16.65
2022-11-01T14:27:18.526Z,18.38
2022-11-01T14:29:50.316Z,12.88
2022-11-01T14:32:19.759Z,17.95
2022-11-01T14:35:04.344Z,13.95
2022-11-01T14:37:38.316Z,16.92
2022-11-01T14:40:27.146Z,13.35
2022-11-01T14:42:58.936Z,15.57
2022-11-01T14:45:36.658Z,18.35
2022-11-01T14:48:40.300Z,14.82
2022-11-01T14:51:23.944Z,18.50
2022-11-01T14:54:02.402Z,16.45
2022-11-01T14:56:39.936Z,15.95
2022-11-01T14:59:27.400Z,21.35
2022-11-01T15:02:02.482Z,22.50
2022-11-01T15:04:38.440Z,14.88
2022-11-01T15:07:30.799Z,16.50
2022-11-01T15:10:02.815Z,17.15
2022-11-01T15:12:34.749Z,15.65
2022-11-01T15:15:02.807Z,14.13
2022-11-01T15:17:35.454Z,14.40
2022-11-01T15:20:14.741Z,15.30
2022-11-01T15:22:42.767Z,13.65
2022-11-01T15:25:20.450Z,12.63
2022-11-01T15:27:49.660Z,15.63
2022-11-01T15:30:30.359Z,12.77
2022-11-01T15:33:19.915Z,20.73
2022-11-01T15:36:06.551Z,16.42
2022-11-01T15:38:35.847Z,15.60
2022-11-01T15:41:20.289Z,14.10
2022-11-01T15:44:09.797Z,14.25
2022-11-01T15:46:43.328Z,18.85
2022-11-01T15:49:24.642Z,13.60
2022-11-01T15:51:56.813Z,18.38
2022-11-01T15:54:45.239Z,13.23
2022-11-01T15:57:27.774Z,19.67
2022-11-01T16:00:17.827Z,16.00
2022-11-01T16:02:50.225Z,15.95
2022-11-01T16:05:27.111Z,18.63
2022-11-01T16:07:54.510Z,16.55
2022-11-01T16:10:24.966Z,16.60
2022-11-01T16:12:53.642Z,15.82
2022-11-01T16:15:25.639Z,14.48
2022-11-01T16:17:55.812Z,26.73
2022-11-01T16:20:29.618Z,25.13
2022-11-01T16:23:06.255Z,24.52
2022-11-01T16:25:37.151Z,22.73
2022-11-01T16:28:10.571Z,23.02
2022-11-01T16:30:46.233Z,17.75
2022-11-01T16:33:28.578Z,21.48
2022-11-01T16:36:04.590Z,16.17
2022-11-01T16:38:35.821Z,17.08
2022-11-01T16:41:18.878Z,20.48
2022-11-01T16:43:57.725Z,17.70
2022-11-01T16:46:26.713Z,18.58
2022-11-01T16:48:57.088Z,18.35
2022-11-01T16:51:28.395Z,20.48
2022-11-01T16:54:00.448Z,20.02
2022-11-01T16:56:36.729Z,16.20
2022-11-01T16:59:29.271Z,20.55
2022-11-01T17:01:58.411Z,24.40
2022-11-01T17:04:27.171Z,23.77
2022-11-01T17:06:57.850Z,24.20
2022-11-01T17:09:27.512Z,23.50
2022-11-01T17:11:54.800Z,25.85
2022-11-01T17:14:22.229Z,27.33
2022-11-01T17:16:51.163Z,30.75
2022-11-01T17:19:40.804Z,31.60
2022-11-01T17:22:13.881Z,28.23
2022-11-01T17:24:41.415Z,25.30
2022-11-01T17:27:09.264Z,25.77
2022-11-01T17:29:36.601Z,25.15
2022-11-01T17:32:08.849Z,26.70
2022-11-01T17:34:36.999Z,32.20
2022-11-01T17:37:05.883Z,32.92
2022-11-01T17:39:33.288Z,28.05
2022-11-01T17:42:00.881Z,32.15
2022-11-01T17:44:28.181Z,29.63
2022-11-01T17:46:55.427Z,28.50
2022-11-01T17:49:24.347Z,30.20
2022-11-01T17:51:54.756Z,30.63
2022-11-01T17:54:23.402Z,30.83
2022-11-01T17:56:51.291Z,25.58
2022-11-01T17:59:18.853Z,28.30
2022-11-01T18:01:46.201Z,33.78
2022-11-01T18:04:13.872Z,27.27
2022-11-01T18:06:41.198Z,27.65
2022-11-01T18:09:19.652Z,30.70
2022-11-01T18:12:13.025Z,31.90
2022-11-01T18:15:15.493Z,28.15
2022-11-01T18:18:06.768Z,29.13
2022-11-01T18:21:08.949Z,29.75
2022-11-01T18:23:37.088Z,30.05
2022-11-01T18:26:10.665Z,36.53
2022-11-01T18:28:37.987Z,37.83
2022-11-01T18:31:27.295Z,33.88
2022-11-01T18:34:31.971Z,36.10
2022-11-01T18:37:21.743Z,36.22
2022-11-01T18:40:02.178Z,34.80
2022-11-01T18:42:30.625Z,34.63
2022-11-01T18:45:02.497Z,33.08
2022-11-01T18:47:34.790Z,27.02
2022-11-01T18:50:21.484Z,30.10
2022-11-01T18:52:49.277Z,26.67
2022-11-01T18:55:16.631Z,29.67
2022-11-01T18:57:43.921Z,29.70
2022-11-01T19:00:14.005Z,25.48
2022-11-01T19:02:41.382Z,30.67
2022-11-01T19:05:17.655Z,29.52
2022-11-01T19:08:10.153Z,28.35
2022-11-01T19:10:39.921Z,30.75
2022-11-01T19:13:19.262Z,36.80
2022-11-01T19:19:20.091Z,25.08
2022-11-01T19:21:47.623Z,31.15
2022-11-01T19:24:36.032Z,25.65
2022-11-01T19:27:18.324Z,28.92
2022-11-01T19:29:45.612Z,27.25
2022-11-01T19:32:16.311Z,27.80
2022-11-01T19:34:43.645Z,26.10
2022-11-01T19:37:34.639Z,23.60
2022-11-01T19:40:06.866Z,26.58
2022-11-01T19:42:35.178Z,24.52
2022-11-01T19:45:14.148Z,22.58
2022-11-01T19:47:45.944Z,30.33
2022-11-01T19:50:23.463Z,26.10
2022-11-01T19:52:52.794Z,28.98
2022-11-01T19:55:46.044Z,26.23
2022-11-01T19:58:30.972Z,25.70
2022-11-01T20:01:04.386Z,27.13
2022-11-01T20:03:39.592Z,28.15
2022-11-01T20:06:38.887Z,31.48
2022-11-01T20:09:12.691Z,25.50
2022-11-01T20:11:40.027Z,28.85
2022-11-01T20:14:07.516Z,26.90
2022-11-01T20:16:35.036Z,28.95
2022-11-01T20:19:02.314Z,24.80
2022-11-01T20:21:29.630Z,30.58
2022-11-01T20:23:56.906Z,24.83
2022-11-01T20:26:24.548Z,25.30
2022-11-01T20:28:51.829Z,25.88
2022-11-01T20:31:19.924Z,26.88
2022-11-01T20:33:47.296Z,29.73
2022-11-01T20:36:14.578Z,27.85
2022-11-01T20:38:41.933Z,25.05
2022-11-01T20:41:09.422Z,22.08
2022-11-01T20:43:36.993Z,23.42
2022-11-01T20:46:04.347Z,24.65
2022-11-01T20:48:32.067Z,22.25
2022-11-01T20:50:59.436Z,26.00
2022-11-01T20:53:29.634Z,26.58
2022-11-01T20:55:57.602Z,24.23
2022-11-01T20:58:25.853Z,21.48
2022-11-01T21:00:56.551Z,22.45
2022-11-01T21:03:24.614Z,25.95
2022-11-01T21:05:52.129Z,21.35
2022-11-01T21:08:22.724Z,23.15
2022-11-01T21:10:59.659Z,19.67
2022-11-01T21:13:34.046Z,23.38
2022-11-01T21:16:03.354Z,21.20
2022-11-01T21:18:39.247Z,22.38
2022-11-01T21:21:15.608Z,26.77
2022-11-01T21:23:44.649Z,22.83
2022-11-01T21:26:28.323Z,21.70
2022-11-01T21:29:04.646Z,20.65
2022-11-01T21:31:38.925Z,20.77
2022-11-01T21:34:10.019Z,25.27
2022-11-01T21:36:41.248Z,20.33
2022-11-01T21:39:21.081Z,23.98
2022-11-01T21:41:54.172Z,26.17
2022-11-01T21:44:26.977Z,25.67
2022-11-01T21:47:09.310Z,20.90
2022-11-01T21:49:36.818Z,22.50
2022-11-01T21:52:07.070Z,25.92
2022-11-01T21:54:39.782Z,22.13
2022-11-01T21:57:09.335Z,22.05
2022-11-01T21:59:37.459Z,23.85
2022-11-01T22:02:06.558Z,22.75
2022-11-01T22:04:34.089Z,26.83
2022-11-01T22:07:03.669Z,25.63
2022-11-01T22:09:31.872Z,21.08
2022-11-01T22:11:59.447Z,21.58
2022-11-01T22:14:26.757Z,20.60
2022-11-01T22:16:54.149Z,21.58
2022-11-01T22:19:21.402Z,24.38
2022-11-01T22:21:48.700Z,25.45
2022-11-01T22:24:16.016Z,21.95
2022-11-01T22:26:43.400Z,21.33
2022-11-01T22:29:10.945Z,26.17
2022-11-01T22:31:42.017Z,28.17
2022-11-01T22:34:09.254Z,18.65
2022-11-01T22:36:37.439Z,22.63
2022-11-01T22:39:16.049Z,20.33
2022-11-01T22:41:44.192Z,22.58
2022-11-01T22:44:18.670Z,15.77
2022-11-01T22:46:56.949Z,19.40
2022-11-01T22:49:34.826Z,20.27
2022-11-01T22:52:20.679Z,18.15
2022-11-01T22:54:50.291Z,21.73
2022-11-01T22:57:31.877Z,18.75
2022-11-01T23:00:02.349Z,23.55
2022-11-01T23:02:34.955Z,18.10
2022-11-01T23:05:08.533Z,20.08
2022-11-01T23:07:41.186Z,18.83
2022-11-01T23:10:31.831Z,20.90
2022-11-01T23:13:29.817Z,24.25
2022-11-01T23:16:02.389Z,26.02
2022-11-01T23:18:34.235Z,28.00
2022-11-01T23:21:06.337Z,19.45
2022-11-01T23:23:40.595Z,20.33
2022-11-01T23:26:08.573Z,16.80
2022-11-01T23:28:39.979Z,21.35
2022-11-01T23:31:07.848Z,19.05
2022-11-01T23:33:46.051Z,19.95
2022-11-01T23:36:35.292Z,19.92
2022-11-01T23:39:11.541Z,20.35
2022-11-01T23:44:30.812Z,17.65
2022-11-01T23:47:17.340Z,18.83
2022-11-01T23:49:46.342Z,19.30
2022-11-01T23:52:41.405Z,20.05
2022-11-01T23:55:15.542Z,17.80
2022-11-01T23:57:42.836Z,16.88
